sensor_id;sensor_type;location;lat;lon;timestamp;pressure;altitude;pressure_sealevel;temperature;humidity
10115;BME280;5097;43.260;27.812;2023-02-08T00:00:57;101935.81;;;-1.50;75.56
10115;BME280;5097;43.260;27.812;2023-02-08T00:03:41;101939.72;;;-1.66;75.82
10115;BME280;5097;43.260;27.812;2023-02-08T00:06:25;101933.41;;;-1.76;76.89
10115;BME280;5097;43.260;27.812;2023-02-08T00:09:10;101807.31;;;-2.44;76.31
10115;BME280;5097;43.260;27.812;2023-02-08T00:11:54;101936.34;;;-1.63;76.74
10115;BME280;5097;43.260;27.812;2023-02-08T00:14:39;101946.44;;;-2.05;77.80
10115;BME280;5097;43.260;27.812;2023-02-08T00:17:23;101938.19;;;-1.91;77.47
10115;BME280;5097;43.260;27.812;2023-02-08T00:20:09;101938.69;;;-1.73;76.75
10115;BME280;5097;43.260;27.812;2023-02-08T00:22:53;101939.47;;;-1.42;76.34
10115;BME280;5097;43.260;27.812;2023-02-08T00:25:38;101944.00;;;-1.66;76.39
10115;BME280;5097;43.260;27.812;2023-02-08T00:28:22;101941.16;;;-1.44;75.26
10115;BME280;5097;43.260;27.812;2023-02-08T00:31:07;101936.69;;;-1.49;75.84
10115;BME280;5097;43.260;27.812;2023-02-08T00:33:51;101938.44;;;-1.82;76.49
10115;BME280;5097;43.260;27.812;2023-02-08T00:36:35;101938.50;;;-1.79;75.82
10115;BME280;5097;43.260;27.812;2023-02-08T00:39:19;101949.88;;;-1.74;76.04
10115;BME280;5097;43.260;27.812;2023-02-08T00:42:03;101942.59;;;-1.55;75.71
10115;BME280;5097;43.260;27.812;2023-02-08T00:44:47;101938.31;;;-1.53;74.68
10115;BME280;5097;43.260;27.812;2023-02-08T00:47:32;101949.44;;;-1.57;74.16
10115;BME280;5097;43.260;27.812;2023-02-08T00:50:16;101951.28;;;-1.18;74.30
10115;BME280;5097;43.260;27.812;2023-02-08T00:53:00;101941.44;;;-1.31;74.02
10115;BME280;5097;43.260;27.812;2023-02-08T00:55:49;101953.34;;;-1.40;72.89
10115;BME280;5097;43.260;27.812;2023-02-08T00:58:34;101962.34;;;-1.92;73.38
10115;BME280;5097;43.260;27.812;2023-02-08T01:01:18;101944.09;;;-2.27;74.29
10115;BME280;5097;43.260;27.812;2023-02-08T01:04:04;101954.19;;;-2.06;73.83
10115;BME280;5097;43.260;27.812;2023-02-08T01:06:48;101964.59;;;-2.05;72.92
10115;BME280;5097;43.260;27.812;2023-02-08T01:09:32;101948.53;;;-2.23;73.40
10115;BME280;5097;43.260;27.812;2023-02-08T01:12:17;101962.16;;;-1.98;71.93
10115;BME280;5097;43.260;27.812;2023-02-08T01:15:02;101920.81;;;-2.26;71.52
10115;BME280;5097;43.260;27.812;2023-02-08T01:17:46;101961.88;;;-2.08;72.35
10115;BME280;5097;43.260;27.812;2023-02-08T01:20:33;101902.13;;;-2.46;71.87
10115;BME280;5097;43.260;27.812;2023-02-08T01:23:17;101914.31;;;-2.71;71.81
10115;BME280;5097;43.260;27.812;2023-02-08T01:26:02;101976.88;;;-2.57;72.09
10115;BME280;5097;43.260;27.812;2023-02-08T01:28:47;101945.16;;;-2.78;70.82
10115;BME280;5097;43.260;27.812;2023-02-08T01:31:33;101971.94;;;-2.49;70.86
10115;BME280;5097;43.260;27.812;2023-02-08T01:34:18;101990.78;;;-2.53;70.06
10115;BME280;5097;43.260;27.812;2023-02-08T01:37:03;101979.22;;;-2.64;69.61
10115;BME280;5097;43.260;27.812;2023-02-08T01:39:47;101984.13;;;-2.72;70.24
10115;BME280;5097;43.260;27.812;2023-02-08T01:42:31;101972.47;;;-2.59;68.94
10115;BME280;5097;43.260;27.812;2023-02-08T01:45:23;101938.63;;;-2.94;67.00
10115;BME280;5097;43.260;27.812;2023-02-08T01:48:10;101983.72;;;-2.86;65.27
10115;BME280;5097;43.260;27.812;2023-02-08T01:51:00;101980.69;;;-2.73;65.52
10115;BME280;5097;43.260;27.812;2023-02-08T01:53:48;101969.31;;;-2.50;64.77
10115;BME280;5097;43.260;27.812;2023-02-08T01:56:35;101991.91;;;-2.99;64.17
10115;BME280;5097;43.260;27.812;2023-02-08T01:59:22;102002.59;;;-2.89;63.54
10115;BME280;5097;43.260;27.812;2023-02-08T02:02:10;101982.34;;;-3.02;62.77
10115;BME280;5097;43.260;27.812;2023-02-08T02:04:57;102012.75;;;-3.21;62.85
10115;BME280;5097;43.260;27.812;2023-02-08T02:07:44;102001.66;;;-2.91;62.15
10115;BME280;5097;43.260;27.812;2023-02-08T02:10:31;101974.22;;;-2.58;62.02
10115;BME280;5097;43.260;27.812;2023-02-08T02:13:17;102013.19;;;-2.81;62.53
10115;BME280;5097;43.260;27.812;2023-02-08T02:16:02;101981.25;;;-3.09;62.97
10115;BME280;5097;43.260;27.812;2023-02-08T02:18:46;102003.59;;;-3.11;62.42
10115;BME280;5097;43.260;27.812;2023-02-08T02:21:42;101949.94;;;-3.69;61.91
10115;BME280;5097;43.260;27.812;2023-02-08T02:24:51;102006.78;;;-3.69;62.06
10115;BME280;5097;43.260;27.812;2023-02-08T02:28:01;102024.06;;;-3.43;61.77
10115;BME280;5097;43.260;27.812;2023-02-08T02:34:36;102021.69;;;-3.37;61.84
10115;BME280;5097;43.260;27.812;2023-02-08T02:37:32;101982.88;;;-3.88;62.27
10115;BME280;5097;43.260;27.812;2023-02-08T02:40:28;102026.09;;;-3.58;62.25
10115;BME280;5097;43.260;27.812;2023-02-08T02:43:22;102033.03;;;-3.57;62.31
10115;BME280;5097;43.260;27.812;2023-02-08T02:46:25;102025.34;;;-3.80;62.69
10115;BME280;5097;43.260;27.812;2023-02-08T02:49:15;101999.41;;;-3.83;63.42
10115;BME280;5097;43.260;27.812;2023-02-08T02:52:05;102011.47;;;-3.82;63.75
10115;BME280;5097;43.260;27.812;2023-02-08T02:54:55;102026.63;;;-3.91;64.08
10115;BME280;5097;43.260;27.812;2023-02-08T02:57:43;102036.13;;;-3.90;64.39
10115;BME280;5097;43.260;27.812;2023-02-08T03:00:30;102041.06;;;-3.74;64.14
10115;BME280;5097;43.260;27.812;2023-02-08T03:03:17;102034.47;;;-3.65;64.40
10115;BME280;5097;43.260;27.812;2023-02-08T03:06:04;102043.13;;;-3.88;65.43
10115;BME280;5097;43.260;27.812;2023-02-08T03:09:09;102046.53;;;-3.89;66.08
10115;BME280;5097;43.260;27.812;2023-02-08T03:12:03;102002.00;;;-4.30;67.05
10115;BME280;5097;43.260;27.812;2023-02-08T03:14:56;102044.47;;;-3.75;66.78
10115;BME280;5097;43.260;27.812;2023-02-08T03:17:53;102061.25;;;-3.86;67.44
10115;BME280;5097;43.260;27.812;2023-02-08T03:20:50;102058.50;;;-3.91;68.23
10115;BME280;5097;43.260;27.812;2023-02-08T03:23:42;102061.97;;;-4.13;69.33
10115;BME280;5097;43.260;27.812;2023-02-08T03:26:34;102063.09;;;-4.06;69.13
10115;BME280;5097;43.260;27.812;2023-02-08T03:29:24;102072.06;;;-4.19;69.35
10115;BME280;5097;43.260;27.812;2023-02-08T03:32:14;102063.09;;;-4.06;68.27
10115;BME280;5097;43.260;27.812;2023-02-08T03:35:02;102057.91;;;-4.06;67.64
10115;BME280;5097;43.260;27.812;2023-02-08T03:37:50;102060.28;;;-3.90;67.44
10115;BME280;5097;43.260;27.812;2023-02-08T03:40:37;102036.28;;;-4.32;67.00
10115;BME280;5097;43.260;27.812;2023-02-08T03:43:26;102061.59;;;-4.22;67.24
10115;BME280;5097;43.260;27.812;2023-02-08T03:46:14;102057.16;;;-4.04;66.88
10115;BME280;5097;43.260;27.812;2023-02-08T03:49:03;102033.81;;;-4.29;67.46
10115;BME280;5097;43.260;27.812;2023-02-08T03:51:51;102068.31;;;-4.27;67.42
10115;BME280;5097;43.260;27.812;2023-02-08T03:54:39;102084.56;;;-4.30;67.19
10115;BME280;5097;43.260;27.812;2023-02-08T03:57:26;102079.91;;;-4.39;67.55
10115;BME280;5097;43.260;27.812;2023-02-08T04:00:15;102085.06;;;-4.39;67.71
10115;BME280;5097;43.260;27.812;2023-02-08T04:03:04;102076.56;;;-4.36;67.59
10115;BME280;5097;43.260;27.812;2023-02-08T04:05:49;102080.38;;;-4.26;67.61
10115;BME280;5097;43.260;27.812;2023-02-08T04:08:33;102084.19;;;-4.39;67.77
10115;BME280;5097;43.260;27.812;2023-02-08T04:11:17;102080.88;;;-4.14;66.75
10115;BME280;5097;43.260;27.812;2023-02-08T04:14:01;102044.19;;;-4.72;66.98
10115;BME280;5097;43.260;27.812;2023-02-08T04:16:47;102090.97;;;-4.41;67.20
10115;BME280;5097;43.260;27.812;2023-02-08T04:19:31;102116.53;;;-4.68;67.52
10115;BME280;5097;43.260;27.812;2023-02-08T04:22:15;102083.78;;;-4.71;67.83
10115;BME280;5097;43.260;27.812;2023-02-08T04:24:59;102115.22;;;-4.59;67.96
10115;BME280;5097;43.260;27.812;2023-02-08T04:27:45;102120.88;;;-4.46;67.43
10115;BME280;5097;43.260;27.812;2023-02-08T04:30:29;102124.03;;;-4.53;67.58
10115;BME280;5097;43.260;27.812;2023-02-08T04:33:14;102131.38;;;-4.42;67.83
10115;BME280;5097;43.260;27.812;2023-02-08T04:35:58;102134.59;;;-4.68;68.25
10115;BME280;5097;43.260;27.812;2023-02-08T04:38:42;102138.94;;;-4.46;68.29
10115;BME280;5097;43.260;27.812;2023-02-08T04:41:25;102113.50;;;-4.58;68.12
10115;BME280;5097;43.260;27.812;2023-02-08T04:44:09;102181.41;;;-4.17;68.24
10115;BME280;5097;43.260;27.812;2023-02-08T04:46:54;102159.94;;;-4.16;67.96
10115;BME280;5097;43.260;27.812;2023-02-08T04:49:39;102162.19;;;-4.02;68.21
10115;BME280;5097;43.260;27.812;2023-02-08T04:52:23;102160.78;;;-3.94;68.19
10115;BME280;5097;43.260;27.812;2023-02-08T04:55:07;102161.16;;;-3.85;68.22
10115;BME280;5097;43.260;27.812;2023-02-08T04:57:51;102162.78;;;-3.64;67.63
10115;BME280;5097;43.260;27.812;2023-02-08T05:00:35;102156.50;;;-3.48;67.00
10115;BME280;5097;43.260;27.812;2023-02-08T05:03:19;102161.69;;;-3.94;68.16
10115;BME280;5097;43.260;27.812;2023-02-08T05:06:05;102176.34;;;-3.93;67.93
10115;BME280;5097;43.260;27.812;2023-02-08T05:08:49;102178.41;;;-3.61;67.32
10115;BME280;5097;43.260;27.812;2023-02-08T05:11:33;102174.66;;;-3.69;67.79
10115;BME280;5097;43.260;27.812;2023-02-08T05:14:16;102158.91;;;-3.76;67.59
10115;BME280;5097;43.260;27.812;2023-02-08T05:17:00;102172.50;;;-3.81;68.20
10115;BME280;5097;43.260;27.812;2023-02-08T05:19:44;102160.69;;;-3.52;67.84
10115;BME280;5097;43.260;27.812;2023-02-08T05:22:30;102161.03;;;-3.43;67.12
10115;BME280;5097;43.260;27.812;2023-02-08T05:25:14;102156.69;;;-3.66;68.02
10115;BME280;5097;43.260;27.812;2023-02-08T05:27:59;102092.84;;;-4.16;68.29
10115;BME280;5097;43.260;27.812;2023-02-08T05:30:43;102180.53;;;-3.74;68.83
10115;BME280;5097;43.260;27.812;2023-02-08T05:33:27;102184.16;;;-3.68;68.58
10115;BME280;5097;43.260;27.812;2023-02-08T05:36:11;102173.34;;;-3.58;68.96
10115;BME280;5097;43.260;27.812;2023-02-08T05:38:57;102178.88;;;-3.72;69.42
10115;BME280;5097;43.260;27.812;2023-02-08T05:41:41;102181.16;;;-3.79;70.01
10115;BME280;5097;43.260;27.812;2023-02-08T05:44:24;102192.13;;;-3.85;70.04
10115;BME280;5097;43.260;27.812;2023-02-08T05:47:08;102194.59;;;-3.88;70.51
10115;BME280;5097;43.260;27.812;2023-02-08T05:49:52;102191.34;;;-3.61;70.43
10115;BME280;5097;43.260;27.812;2023-02-08T05:52:36;102196.22;;;-3.22;69.31
10115;BME280;5097;43.260;27.812;2023-02-08T05:55:21;102200.38;;;-3.50;70.06
10115;BME280;5097;43.260;27.812;2023-02-08T05:58:05;102183.78;;;-3.78;70.09
10115;BME280;5097;43.260;27.812;2023-02-08T06:00:49;102213.16;;;-3.53;70.43
10115;BME280;5097;43.260;27.812;2023-02-08T06:03:35;102213.06;;;-3.33;70.52
10115;BME280;5097;43.260;27.812;2023-02-08T06:06:19;102120.06;;;-3.79;70.22
10115;BME280;5097;43.260;27.812;2023-02-08T06:09:03;102180.09;;;-3.84;71.05
10115;BME280;5097;43.260;27.812;2023-02-08T06:11:48;102180.81;;;-3.66;71.36
10115;BME280;5097;43.260;27.812;2023-02-08T06:14:32;102219.97;;;-3.32;71.28
10115;BME280;5097;43.260;27.812;2023-02-08T06:17:16;102227.56;;;-3.37;70.85
10115;BME280;5097;43.260;27.812;2023-02-08T06:20:00;102204.72;;;-3.72;72.09
10115;BME280;5097;43.260;27.812;2023-02-08T06:22:45;102257.09;;;-3.53;72.30
10115;BME280;5097;43.260;27.812;2023-02-08T06:25:29;102224.38;;;-3.30;71.38
10115;BME280;5097;43.260;27.812;2023-02-08T06:28:14;102255.59;;;-3.48;71.25
10115;BME280;5097;43.260;27.812;2023-02-08T06:30:58;102248.94;;;-3.64;71.97
10115;BME280;5097;43.260;27.812;2023-02-08T06:33:42;102251.94;;;-3.53;72.24
10115;BME280;5097;43.260;27.812;2023-02-08T06:36:26;102245.81;;;-3.32;71.32
10115;BME280;5097;43.260;27.812;2023-02-08T06:39:10;102240.59;;;-3.34;71.35
10115;BME280;5097;43.260;27.812;2023-02-08T06:41:53;102248.19;;;-3.39;71.56
10115;BME280;5097;43.260;27.812;2023-02-08T06:44:39;102231.63;;;-3.44;71.89
10115;BME280;5097;43.260;27.812;2023-02-08T06:47:35;102252.28;;;-3.44;72.05
10115;BME280;5097;43.260;27.812;2023-02-08T06:50:19;102255.69;;;-3.22;71.94
10115;BME280;5097;43.260;27.812;2023-02-08T06:53:05;102247.06;;;-3.23;72.14
10115;BME280;5097;43.260;27.812;2023-02-08T06:55:49;102250.41;;;-3.03;70.77
10115;BME280;5097;43.260;27.812;2023-02-08T06:58:33;102255.94;;;-3.16;71.91
10115;BME280;5097;43.260;27.812;2023-02-08T07:01:18;102263.34;;;-3.48;71.76
10115;BME280;5097;43.260;27.812;2023-02-08T07:04:03;102250.41;;;-3.25;71.92
10115;BME280;5097;43.260;27.812;2023-02-08T07:06:47;102251.19;;;-2.81;70.93
10115;BME280;5097;43.260;27.812;2023-02-08T07:09:32;102253.84;;;-3.02;70.81
10115;BME280;5097;43.260;27.812;2023-02-08T07:12:16;102257.09;;;-3.08;70.23
10115;BME280;5097;43.260;27.812;2023-02-08T07:14:59;102248.69;;;-3.02;70.17
10115;BME280;5097;43.260;27.812;2023-02-08T07:17:46;102231.66;;;-3.20;70.21
10115;BME280;5097;43.260;27.812;2023-02-08T07:20:30;102249.41;;;-3.29;71.20
10115;BME280;5097;43.260;27.812;2023-02-08T07:23:14;102263.75;;;-3.37;71.31
10115;BME280;5097;43.260;27.812;2023-02-08T07:25:58;102276.88;;;-3.31;71.08
10115;BME280;5097;43.260;27.812;2023-02-08T07:28:43;102265.22;;;-3.21;71.34
10115;BME280;5097;43.260;27.812;2023-02-08T07:31:27;102244.59;;;-2.95;70.20
10115;BME280;5097;43.260;27.812;2023-02-08T07:34:12;102254.03;;;-2.73;69.53
10115;BME280;5097;43.260;27.812;2023-02-08T07:36:58;102239.22;;;-2.77;70.09
10115;BME280;5097;43.260;27.812;2023-02-08T07:39:42;102248.72;;;-3.00;70.72
10115;BME280;5097;43.260;27.812;2023-02-08T07:42:26;102239.81;;;-3.09;70.74
10115;BME280;5097;43.260;27.812;2023-02-08T07:45:23;102252.47;;;-2.92;70.27
10115;BME280;5097;43.260;27.812;2023-02-08T07:48:07;102231.22;;;-2.59;69.01
10115;BME280;5097;43.260;27.812;2023-02-08T07:50:52;102216.06;;;-2.98;68.75
10115;BME280;5097;43.260;27.812;2023-02-08T07:53:37;102242.59;;;-2.56;68.25
10115;BME280;5097;43.260;27.812;2023-02-08T07:56:21;102241.59;;;-2.59;67.93
10115;BME280;5097;43.260;27.812;2023-02-08T07:59:05;102247.16;;;-2.97;68.79
10115;BME280;5097;43.260;27.812;2023-02-08T08:01:49;102261.34;;;-2.86;69.41
10115;BME280;5097;43.260;27.812;2023-02-08T08:04:34;102231.25;;;-2.83;69.33
10115;BME280;5097;43.260;27.812;2023-02-08T08:07:19;102220.31;;;-3.23;71.66
10115;BME280;5097;43.260;27.812;2023-02-08T08:10:04;102217.34;;;-3.10;72.21
10115;BME280;5097;43.260;27.812;2023-02-08T08:12:48;102217.53;;;-2.81;71.78
10115;BME280;5097;43.260;27.812;2023-02-08T08:15:32;102252.28;;;-2.74;72.83
10115;BME280;5097;43.260;27.812;2023-02-08T08:18:16;102265.44;;;-2.44;72.69
10115;BME280;5097;43.260;27.812;2023-02-08T08:21:00;102260.81;;;-2.77;72.55
10115;BME280;5097;43.260;27.812;2023-02-08T08:23:45;102256.13;;;-2.87;75.05
10115;BME280;5097;43.260;27.812;2023-02-08T08:26:29;102283.00;;;-2.59;74.44
10115;BME280;5097;43.260;27.812;2023-02-08T08:29:13;102258.88;;;-2.58;75.03
10115;BME280;5097;43.260;27.812;2023-02-08T08:31:57;102259.19;;;-2.97;75.12
10115;BME280;5097;43.260;27.812;2023-02-08T08:34:41;102271.72;;;-2.84;75.14
10115;BME280;5097;43.260;27.812;2023-02-08T08:37:25;102247.34;;;-2.91;75.08
10115;BME280;5097;43.260;27.812;2023-02-08T08:40:10;102255.91;;;-2.93;75.65
10115;BME280;5097;43.260;27.812;2023-02-08T08:42:55;102234.22;;;-2.97;75.36
10115;BME280;5097;43.260;27.812;2023-02-08T08:45:39;102243.22;;;-3.10;76.04
10115;BME280;5097;43.260;27.812;2023-02-08T08:48:23;102232.81;;;-3.11;75.70
10115;BME280;5097;43.260;27.812;2023-02-08T08:51:07;102247.53;;;-2.36;73.68
10115;BME280;5097;43.260;27.812;2023-02-08T08:53:51;102248.88;;;-2.73;72.17
10115;BME280;5097;43.260;27.812;2023-02-08T08:56:36;102247.53;;;-2.86;73.96
10115;BME280;5097;43.260;27.812;2023-02-08T08:59:20;102249.84;;;-2.70;74.20
10115;BME280;5097;43.260;27.812;2023-02-08T09:02:04;102263.97;;;-2.84;75.43
10115;BME280;5097;43.260;27.812;2023-02-08T09:04:48;102257.09;;;-2.59;73.82
10115;BME280;5097;43.260;27.812;2023-02-08T09:07:32;102269.22;;;-2.82;73.72
10115;BME280;5097;43.260;27.812;2023-02-08T09:10:16;102246.19;;;-2.75;73.62
10115;BME280;5097;43.260;27.812;2023-02-08T09:13:01;102261.16;;;-2.42;72.89
10115;BME280;5097;43.260;27.812;2023-02-08T09:15:45;102289.94;;;-2.58;71.65
10115;BME280;5097;43.260;27.812;2023-02-08T09:18:30;102230.41;;;-2.58;71.65
10115;BME280;5097;43.260;27.812;2023-02-08T09:21:15;102267.63;;;-2.79;72.59
10115;BME280;5097;43.260;27.812;2023-02-08T09:24:00;102251.97;;;-3.06;74.78
10115;BME280;5097;43.260;27.812;2023-02-08T09:26:44;102260.03;;;-2.98;75.06
10115;BME280;5097;43.260;27.812;2023-02-08T09:29:30;102246.84;;;-3.05;74.34
10115;BME280;5097;43.260;27.812;2023-02-08T09:32:15;102246.09;;;-2.78;76.69
10115;BME280;5097;43.260;27.812;2023-02-08T09:34:59;102245.41;;;-2.48;75.99
10115;BME280;5097;43.260;27.812;2023-02-08T09:37:44;102271.69;;;-2.86;76.15
10115;BME280;5097;43.260;27.812;2023-02-08T09:40:40;102247.16;;;-2.73;75.94
10115;BME280;5097;43.260;27.812;2023-02-08T09:43:31;102249.50;;;-2.55;78.07
10115;BME280;5097;43.260;27.812;2023-02-08T09:46:27;102226.16;;;-3.05;77.88
10115;BME280;5097;43.260;27.812;2023-02-08T09:49:15;102246.19;;;-2.75;78.04
10115;BME280;5097;43.260;27.812;2023-02-08T09:52:03;102253.09;;;-2.75;78.26
10115;BME280;5097;43.260;27.812;2023-02-08T09:54:53;102236.84;;;-2.95;78.98
10115;BME280;5097;43.260;27.812;2023-02-08T09:57:41;102253.31;;;-2.69;79.95
10115;BME280;5097;43.260;27.812;2023-02-08T10:00:33;102249.06;;;-2.91;80.73
10115;BME280;5097;43.260;27.812;2023-02-08T10:03:37;102255.31;;;-3.09;83.07
10115;BME280;5097;43.260;27.812;2023-02-08T10:06:23;102242.78;;;-2.74;83.42
10115;BME280;5097;43.260;27.812;2023-02-08T10:09:10;102240.25;;;-2.96;84.17
10115;BME280;5097;43.260;27.812;2023-02-08T10:12:06;102241.78;;;-3.01;82.13
10115;BME280;5097;43.260;27.812;2023-02-08T10:15:03;102256.44;;;-3.02;81.00
10115;BME280;5097;43.260;27.812;2023-02-08T10:18:24;102240.38;;;-2.93;80.64
10115;BME280;5097;43.260;27.812;2023-02-08T10:21:27;102217.69;;;-2.76;80.74
10115;BME280;5097;43.260;27.812;2023-02-08T10:27:31;102270.63;;;-2.91;81.55
10115;BME280;5097;43.260;27.812;2023-02-08T10:30:27;102235.41;;;-2.87;83.01
10115;BME280;5097;43.260;27.812;2023-02-08T10:33:17;102247.88;;;-2.77;83.66
10115;BME280;5097;43.260;27.812;2023-02-08T10:36:20;102266.31;;;-2.92;85.63
10115;BME280;5097;43.260;27.812;2023-02-08T10:39:24;102247.19;;;-2.95;87.03
10115;BME280;5097;43.260;27.812;2023-02-08T10:42:17;102216.78;;;-3.03;85.78
10115;BME280;5097;43.260;27.812;2023-02-08T10:45:14;102196.31;;;-3.43;87.55
10115;BME280;5097;43.260;27.812;2023-02-08T10:48:12;102237.47;;;-3.71;88.07
10115;BME280;5097;43.260;27.812;2023-02-08T10:50:58;102225.75;;;-3.83;100.00
10115;BME280;5097;43.260;27.812;2023-02-08T10:53:47;102247.78;;;-3.49;100.00
10115;BME280;5097;43.260;27.812;2023-02-08T10:56:44;102247.47;;;-3.57;95.54
10115;BME280;5097;43.260;27.812;2023-02-08T10:59:32;102266.41;;;-3.57;94.64
10115;BME280;5097;43.260;27.812;2023-02-08T11:02:21;102259.53;;;-3.79;94.79
10115;BME280;5097;43.260;27.812;2023-02-08T11:05:10;102236.34;;;-3.77;97.90
10115;BME280;5097;43.260;27.812;2023-02-08T11:08:05;102218.94;;;-3.60;96.67
10115;BME280;5097;43.260;27.812;2023-02-08T11:11:03;102225.78;;;-3.61;94.87
10115;BME280;5097;43.260;27.812;2023-02-08T11:14:07;102247.50;;;-3.78;95.46
10115;BME280;5097;43.260;27.812;2023-02-08T11:16:56;102246.38;;;-3.85;94.69
10115;BME280;5097;43.260;27.812;2023-02-08T11:19:41;102230.06;;;-3.84;95.00
10115;BME280;5097;43.260;27.812;2023-02-08T11:22:31;102254.53;;;-3.74;95.27
10115;BME280;5097;43.260;27.812;2023-02-08T11:25:33;102243.94;;;-4.03;96.70
10115;BME280;5097;43.260;27.812;2023-02-08T11:28:25;102246.28;;;-3.65;96.29
10115;BME280;5097;43.260;27.812;2023-02-08T11:31:17;102255.88;;;-3.84;97.87
10115;BME280;5097;43.260;27.812;2023-02-08T11:34:10;102250.88;;;-3.79;96.89
10115;BME280;5097;43.260;27.812;2023-02-08T11:36:56;102247.94;;;-3.89;96.07
10115;BME280;5097;43.260;27.812;2023-02-08T11:39:49;102253.50;;;-3.57;97.14
10115;BME280;5097;43.260;27.812;2023-02-08T11:42:40;102265.19;;;-3.88;97.36
10115;BME280;5097;43.260;27.812;2023-02-08T11:45:29;102268.22;;;-3.77;96.36
10115;BME280;5097;43.260;27.812;2023-02-08T11:48:24;102268.72;;;-4.07;96.04
10115;BME280;5097;43.260;27.812;2023-02-08T11:51:09;102283.97;;;-3.71;95.48
10115;BME280;5097;43.260;27.812;2023-02-08T11:53:56;102289.56;;;-3.81;93.43
10115;BME280;5097;43.260;27.812;2023-02-08T11:56:42;102289.88;;;-3.52;94.44
10115;BME280;5097;43.260;27.812;2023-02-08T11:59:25;102284.44;;;-3.58;93.27
10115;BME280;5097;43.260;27.812;2023-02-08T12:02:28;102283.09;;;-3.92;94.59
10115;BME280;5097;43.260;27.812;2023-02-08T12:05:15;102282.31;;;-3.68;96.83
10115;BME280;5097;43.260;27.812;2023-02-08T12:08:06;102259.44;;;-4.03;94.57
10115;BME280;5097;43.260;27.812;2023-02-08T12:11:07;102272.50;;;-3.98;94.35
10115;BME280;5097;43.260;27.812;2023-02-08T12:20:36;102263.28;;;-3.49;92.49
10115;BME280;5097;43.260;27.812;2023-02-08T12:23:34;102231.19;;;-3.77;91.37
10115;BME280;5097;43.260;27.812;2023-02-08T12:26:51;102282.84;;;-3.33;89.99
10115;BME280;5097;43.260;27.812;2023-02-08T12:29:45;102268.50;;;-3.25;91.52
10115;BME280;5097;43.260;27.812;2023-02-08T12:32:42;102254.06;;;-3.20;89.61
10115;BME280;5097;43.260;27.812;2023-02-08T12:38:58;102278.56;;;-2.86;86.37
10115;BME280;5097;43.260;27.812;2023-02-08T12:42:18;102292.72;;;-2.76;86.31
10115;BME280;5097;43.260;27.812;2023-02-08T12:45:22;102267.56;;;-2.80;85.17
10115;BME280;5097;43.260;27.812;2023-02-08T12:48:23;102271.28;;;-2.48;85.32
10115;BME280;5097;43.260;27.812;2023-02-08T12:51:22;102314.28;;;-2.53;84.90
10115;BME280;5097;43.260;27.812;2023-02-08T12:54:10;102301.47;;;-2.73;84.50
10115;BME280;5097;43.260;27.812;2023-02-08T12:56:57;102287.16;;;-2.39;84.92
10115;BME280;5097;43.260;27.812;2023-02-08T12:59:46;102300.47;;;-2.52;83.84
10115;BME280;5097;43.260;27.812;2023-02-08T13:02:40;102309.97;;;-2.77;82.83
10115;BME280;5097;43.260;27.812;2023-02-08T13:05:31;102291.28;;;-3.15;82.53
10115;BME280;5097;43.260;27.812;2023-02-08T13:08:25;102284.41;;;-2.67;84.28
10115;BME280;5097;43.260;27.812;2023-02-08T13:11:14;102304.44;;;-3.31;83.65
10115;BME280;5097;43.260;27.812;2023-02-08T13:14:05;102320.72;;;-3.34;83.71
10115;BME280;5097;43.260;27.812;2023-02-08T13:16:54;102321.03;;;-3.04;83.51
10115;BME280;5097;43.260;27.812;2023-02-08T13:19:49;102276.63;;;-3.16;82.65
10115;BME280;5097;43.260;27.812;2023-02-08T13:22:42;102310.59;;;-3.07;83.23
10115;BME280;5097;43.260;27.812;2023-02-08T13:25:29;102298.56;;;-3.05;82.48
10115;BME280;5097;43.260;27.812;2023-02-08T13:28:17;102303.78;;;-3.03;82.70
10115;BME280;5097;43.260;27.812;2023-02-08T13:31:05;102316.22;;;-2.94;82.48
10115;BME280;5097;43.260;27.812;2023-02-08T13:33:53;102304.41;;;-3.10;82.42
10115;BME280;5097;43.260;27.812;2023-02-08T13:36:49;102323.81;;;-2.97;82.89
10115;BME280;5097;43.260;27.812;2023-02-08T13:39:39;102324.69;;;-2.98;82.84
10115;BME280;5097;43.260;27.812;2023-02-08T13:42:29;102344.31;;;-3.04;82.38
10115;BME280;5097;43.260;27.812;2023-02-08T13:45:23;102317.84;;;-2.96;81.55
10115;BME280;5097;43.260;27.812;2023-02-08T13:48:10;102316.06;;;-2.97;81.71
10115;BME280;5097;43.260;27.812;2023-02-08T13:50:55;102322.56;;;-3.09;81.77
10115;BME280;5097;43.260;27.812;2023-02-08T13:54:08;102293.75;;;-3.18;82.14
10115;BME280;5097;43.260;27.812;2023-02-08T13:56:52;102310.78;;;-3.00;82.22
10115;BME280;5097;43.260;27.812;2023-02-08T13:59:38;102304.69;;;-3.25;80.91
10115;BME280;5097;43.260;27.812;2023-02-08T14:02:27;102308.34;;;-3.20;80.66
10115;BME280;5097;43.260;27.812;2023-02-08T14:05:45;102300.59;;;-3.20;81.81
10115;BME280;5097;43.260;27.812;2023-02-08T14:08:38;102311.59;;;-3.24;81.39
10115;BME280;5097;43.260;27.812;2023-02-08T14:11:34;102317.50;;;-3.06;80.83
10115;BME280;5097;43.260;27.812;2023-02-08T14:14:22;102316.09;;;-3.20;80.91
10115;BME280;5097;43.260;27.812;2023-02-08T14:17:17;102305.69;;;-3.22;80.80
10115;BME280;5097;43.260;27.812;2023-02-08T14:20:04;102270.50;;;-3.18;80.99
10115;BME280;5097;43.260;27.812;2023-02-08T14:22:51;102307.03;;;-3.09;80.80
10115;BME280;5097;43.260;27.812;2023-02-08T14:25:41;102317.13;;;-3.15;80.63
10115;BME280;5097;43.260;27.812;2023-02-08T14:28:29;102305.16;;;-2.90;80.24
10115;BME280;5097;43.260;27.812;2023-02-08T14:31:15;102333.75;;;-3.08;80.37
10115;BME280;5097;43.260;27.812;2023-02-08T14:34:02;102295.88;;;-3.30;80.92
10115;BME280;5097;43.260;27.812;2023-02-08T14:36:45;102331.53;;;-3.22;80.43
10115;BME280;5097;43.260;27.812;2023-02-08T14:39:31;102317.91;;;-3.17;79.98
10115;BME280;5097;43.260;27.812;2023-02-08T14:45:39;102275.59;;;-3.42;80.03
10115;BME280;5097;43.260;27.812;2023-02-08T14:48:28;102321.03;;;-3.04;79.93
10115;BME280;5097;43.260;27.812;2023-02-08T14:51:26;102332.59;;;-3.16;80.77
10115;BME280;5097;43.260;27.812;2023-02-08T14:54:18;102345.00;;;-3.08;81.33
10115;BME280;5097;43.260;27.812;2023-02-08T14:57:06;102333.66;;;-3.11;80.00
10115;BME280;5097;43.260;27.812;2023-02-08T14:59:58;102358.44;;;-3.16;80.83